Terminal Aerodrome Forecast
Issued by NWS Burlington, VT

Home | Current Version | Previous Version | Text Only | Print | Product List | Glossary On
Versions: 1 2 3 4 5 6 7 8 9 10 11 12 13 14 15 16
335
FTUS41 KBTV 071140
TAFBTV
TAF
KBTV 071140Z 0712/0812 19006KT P6SM OVC040
      TEMPO 0714/0716 5SM -SN
     FM071600 01004KT P6SM BKN025
     FM080400 00000KT P6SM BKN045=

USA.gov is the U.S. government's official web portal to all federal, state and local government web resources and services.